createdAt,value
2018-12-04T00:00:09.068Z,97.96
2018-12-04T00:05:14.584Z,96.71
2018-12-04T00:10:18.719Z,97.32
2018-12-04T00:15:23.140Z,96.65
2018-12-04T00:20:27.652Z,96.90
2018-12-04T00:25:31.891Z,96.87
2018-12-04T00:30:41.023Z,97.03
2018-12-04T00:35:45.325Z,96.39
2018-12-04T00:40:49.563Z,96.89
2018-12-04T00:45:54.031Z,96.53
2018-12-04T00:50:58.215Z,95.72
2018-12-04T00:56:02.762Z,95.98
2018-12-04T01:01:07.515Z,95.52
2018-12-04T01:06:12.133Z,95.24
2018-12-04T01:11:16.570Z,94.97
2018-12-04T01:16:38.248Z,94.53
2018-12-04T01:21:42.658Z,94.78
2018-12-04T01:26:47.003Z,95.09
2018-12-04T01:31:51.416Z,95.54
2018-12-04T01:36:56.020Z,95.51
2018-12-04T01:42:00.325Z,95.96
2018-12-04T01:47:04.569Z,96.67
2018-12-04T01:52:08.932Z,96.36
2018-12-04T01:57:13.295Z,97.55
2018-12-04T02:02:17.922Z,98.28
2018-12-04T02:07:22.185Z,98.31
2018-12-04T02:12:27.054Z,98.25
2018-12-04T02:17:31.398Z,97.52
2018-12-04T02:22:36.547Z,96.20
2018-12-04T02:27:40.798Z,96.45
2018-12-04T02:32:45.667Z,96.83
2018-12-04T02:37:50.567Z,97.40
2018-12-04T02:42:54.794Z,97.24
2018-12-04T02:47:59.394Z,96.51
2018-12-04T02:53:03.788Z,95.82
2018-12-04T02:58:08.715Z,95.41
2018-12-04T03:03:13.570Z,96.38
2018-12-04T03:08:17.841Z,96.58
2018-12-04T03:13:22.273Z,97.38
2018-12-04T03:18:27.018Z,100.00
2018-12-04T03:23:31.248Z,100.00
2018-12-04T03:28:35.647Z,100.00
2018-12-04T03:33:53.459Z,99.87
2018-12-04T03:38:57.754Z,98.74
2018-12-04T03:44:03.082Z,97.43
2018-12-04T03:49:08.556Z,98.35
2018-12-04T03:54:19.453Z,99.61
2018-12-04T03:59:24.164Z,100.00
2018-12-04T04:04:28.332Z,100.00
2018-12-04T04:09:32.463Z,100.00
2018-12-04T04:14:38.718Z,100.00
2018-12-04T04:19:42.906Z,100.00
2018-12-04T04:24:47.122Z,100.00
2018-12-04T04:29:51.598Z,99.92
2018-12-04T04:34:55.944Z,96.53
2018-12-04T04:40:01.407Z,95.83
2018-12-04T04:45:06.755Z,96.24
2018-12-04T04:50:11.161Z,97.00
2018-12-04T04:55:15.557Z,96.73
2018-12-04T05:00:21.173Z,96.79
2018-12-04T05:05:25.716Z,96.33
2018-12-04T05:10:30.018Z,95.94
2018-12-04T05:15:35.016Z,96.62
2018-12-04T05:20:39.233Z,96.22
2018-12-04T05:25:43.573Z,96.15
2018-12-04T05:30:47.820Z,94.82
2018-12-04T05:35:52.185Z,95.18
2018-12-04T05:40:56.428Z,95.46
2018-12-04T05:46:01.008Z,95.00
2018-12-04T05:51:05.958Z,94.88
2018-12-04T05:56:12.490Z,95.16
2018-12-04T06:01:17.030Z,94.48
2018-12-04T06:06:22.106Z,94.73
2018-12-04T06:11:31.306Z,93.73
2018-12-04T06:16:35.848Z,94.50
2018-12-04T06:21:41.319Z,94.01
2018-12-04T06:26:46.962Z,94.04
2018-12-04T06:31:57.383Z,93.77
2018-12-04T06:37:01.757Z,93.13
2018-12-04T06:42:06.202Z,92.52
2018-12-04T06:47:10.447Z,92.04
2018-12-04T06:52:16.228Z,91.68
2018-12-04T06:57:20.718Z,90.85
2018-12-04T07:02:25.007Z,91.45
2018-12-04T07:07:29.193Z,92.06
2018-12-04T07:12:33.410Z,89.54
2018-12-04T07:17:47.008Z,90.77
2018-12-04T07:22:51.746Z,90.18
2018-12-04T07:27:57.467Z,89.90
2018-12-04T07:33:12.804Z,91.31
2018-12-04T07:38:16.973Z,91.66
2018-12-04T07:43:21.342Z,91.68
2018-12-04T07:48:26.179Z,91.45
2018-12-04T07:53:30.452Z,90.85
2018-12-04T07:58:34.760Z,89.74
2018-12-04T08:03:39.001Z,89.84
2018-12-04T08:08:49.049Z,89.64
2018-12-04T08:13:53.265Z,89.96
2018-12-04T08:18:57.541Z,89.64
2018-12-04T08:24:01.939Z,88.21
2018-12-04T08:29:06.319Z,88.55
2018-12-04T08:34:11.289Z,87.20
2018-12-04T08:39:15.625Z,86.39
2018-12-04T08:44:20.020Z,85.42
2018-12-04T08:49:24.474Z,84.80
2018-12-04T08:54:28.841Z,84.53
2018-12-04T08:59:33.173Z,84.20
2018-12-04T09:04:37.828Z,84.16
2018-12-04T09:09:42.105Z,84.45
2018-12-04T09:14:46.639Z,84.02
2018-12-04T09:19:51.095Z,83.89
2018-12-04T09:24:55.631Z,82.27
2018-12-04T09:30:00.121Z,82.50
2018-12-04T09:35:04.942Z,82.96
2018-12-04T09:40:10.903Z,81.56
2018-12-04T09:45:21.345Z,81.56
2018-12-04T09:50:25.681Z,80.11
2018-12-04T09:55:30.047Z,79.93
2018-12-04T10:00:34.478Z,78.76
2018-12-04T10:05:39.295Z,78.20
2018-12-04T10:10:43.908Z,78.60
2018-12-04T10:15:48.204Z,77.84
2018-12-04T10:20:52.744Z,77.44
2018-12-04T10:25:57.024Z,76.94
2018-12-04T10:31:10.798Z,76.37
2018-12-04T10:36:15.126Z,74.92
2018-12-04T10:41:19.480Z,73.45
2018-12-04T10:46:23.692Z,73.56
2018-12-04T10:51:32.970Z,71.84
2018-12-04T10:56:37.163Z,72.36
2018-12-04T11:01:51.551Z,72.74
2018-12-04T11:06:55.812Z,73.49
2018-12-04T11:12:00.028Z,74.55
2018-12-04T11:17:04.273Z,73.35
2018-12-04T11:22:08.692Z,73.32
2018-12-04T11:27:13.002Z,74.05
2018-12-04T11:32:22.320Z,73.32
2018-12-04T11:37:26.559Z,70.85
2018-12-04T11:42:30.862Z,70.40
2018-12-04T11:47:35.151Z,67.67
2018-12-04T11:52:39.304Z,67.26
2018-12-04T11:57:46.273Z,68.97
2018-12-04T12:02:51.562Z,69.90
2018-12-04T12:07:55.875Z,70.47
2018-12-04T12:13:00.370Z,70.75
2018-12-04T12:18:04.804Z,68.72
2018-12-04T12:23:09.044Z,68.29
2018-12-04T12:28:13.562Z,67.41
2018-12-04T12:33:17.818Z,66.18
2018-12-04T12:38:24.409Z,65.49
2018-12-04T12:49:04.112Z,64.62
2018-12-04T12:54:09.206Z,63.86
2018-12-04T12:59:13.532Z,61.91
2018-12-04T13:04:22.924Z,61.67
2018-12-04T13:09:27.451Z,63.01
2018-12-04T13:14:32.547Z,64.79
2018-12-04T13:19:37.994Z,64.39
2018-12-04T13:24:42.680Z,65.28
2018-12-04T13:29:47.667Z,65.74
2018-12-04T13:34:52.107Z,66.01
2018-12-04T13:39:57.898Z,65.52
2018-12-04T13:45:02.693Z,65.73
2018-12-04T13:50:09.632Z,66.00
2018-12-04T13:55:14.376Z,66.29
2018-12-04T14:00:18.823Z,65.50
2018-12-04T14:05:23.548Z,64.11
2018-12-04T14:10:30.743Z,64.18
2018-12-04T14:15:35.142Z,63.58
2018-12-04T14:20:39.370Z,63.77
2018-12-04T14:25:49.274Z,63.47
2018-12-04T14:30:55.576Z,62.75
2018-12-04T14:36:00.578Z,63.15
2018-12-04T14:41:04.978Z,63.71
2018-12-04T14:46:10.182Z,62.99
2018-12-04T14:51:15.611Z,63.70
2018-12-04T14:56:20.908Z,63.74
2018-12-04T15:01:25.231Z,63.84
2018-12-04T15:06:29.842Z,63.81
2018-12-04T15:11:35.632Z,64.05
2018-12-04T15:16:40.663Z,64.62
2018-12-04T15:21:45.364Z,64.79
2018-12-04T15:26:49.925Z,65.16
2018-12-04T15:31:54.320Z,65.16
2018-12-04T15:36:58.595Z,64.80
2018-12-04T15:42:03.480Z,65.25
2018-12-04T15:47:08.077Z,65.45
2018-12-04T15:52:12.357Z,65.71
2018-12-04T15:57:16.657Z,65.81
2018-12-04T16:02:20.904Z,66.00
2018-12-04T16:07:25.167Z,65.79
2018-12-04T16:12:29.399Z,66.23
2018-12-04T16:17:33.673Z,66.49
2018-12-04T16:22:37.991Z,66.23
2018-12-04T16:27:42.297Z,66.49
2018-12-04T16:32:46.718Z,66.36
2018-12-04T16:38:05.011Z,66.81
2018-12-04T16:43:09.462Z,67.33
2018-12-04T16:48:13.905Z,67.18
2018-12-04T16:53:18.244Z,67.24
2018-12-04T16:58:22.542Z,67.39
2018-12-04T17:03:27.348Z,67.23
2018-12-04T17:08:31.871Z,67.57
2018-12-04T17:13:41.085Z,68.33
2018-12-04T17:18:45.478Z,68.82
2018-12-04T17:23:49.899Z,68.61
2018-12-04T17:28:54.271Z,68.96
2018-12-04T17:33:58.642Z,68.68
2018-12-04T17:39:03.406Z,68.65
2018-12-04T17:44:09.753Z,68.91
2018-12-04T17:49:14.095Z,68.34
2018-12-04T17:54:18.591Z,69.53
2018-12-04T17:59:24.955Z,70.22
2018-12-04T18:04:29.229Z,69.80
2018-12-04T18:09:36.017Z,69.57
2018-12-04T18:14:42.539Z,70.68
2018-12-04T18:19:46.867Z,70.59
2018-12-04T18:24:51.255Z,70.51
2018-12-04T18:29:55.727Z,70.25
2018-12-04T18:35:01.401Z,70.26
2018-12-04T18:40:06.910Z,71.14
2018-12-04T18:45:16.397Z,71.51
2018-12-04T18:50:20.913Z,71.85
2018-12-04T18:55:25.171Z,72.16
2018-12-04T19:00:29.551Z,72.02
2018-12-04T19:05:34.018Z,72.44
2018-12-04T19:10:38.724Z,72.87
2018-12-04T19:15:43.582Z,73.29
2018-12-04T19:20:47.977Z,73.37
2018-12-04T19:25:53.263Z,74.09
2018-12-04T19:31:02.739Z,73.76
2018-12-04T19:36:04.639Z,74.00
2018-12-04T19:41:09.119Z,74.11
2018-12-04T19:46:13.661Z,75.19
2018-12-04T19:51:18.961Z,75.08
2018-12-04T19:56:24.143Z,74.84
2018-12-04T20:01:33.576Z,75.37
2018-12-04T20:06:38.764Z,75.49
2018-12-04T20:11:44.214Z,75.20
2018-12-04T20:16:48.558Z,75.06
2018-12-04T20:21:53.156Z,75.41
2018-12-04T20:26:57.638Z,75.47
2018-12-04T20:32:09.103Z,76.06
2018-12-04T20:37:13.595Z,76.40
2018-12-04T20:42:23.198Z,76.78
2018-12-04T20:47:24.354Z,77.11
2018-12-04T20:52:28.825Z,77.76
2018-12-04T20:57:33.134Z,77.72
2018-12-04T21:02:37.327Z,77.94
2018-12-04T21:07:42.022Z,78.60
2018-12-04T21:12:46.483Z,78.80
2018-12-04T21:17:50.948Z,79.32
2018-12-04T21:22:56.463Z,79.18
2018-12-04T21:28:06.713Z,78.88
2018-12-04T21:33:16.515Z,79.17
2018-12-04T21:38:26.038Z,79.09
2018-12-04T21:43:35.537Z,79.02
2018-12-04T21:48:40.917Z,78.55
2018-12-04T21:53:45.670Z,78.98
2018-12-04T21:58:50.245Z,79.08
2018-12-04T22:03:57.633Z,79.22
2018-12-04T22:09:02.067Z,79.65
2018-12-04T22:19:23.967Z,80.73
2018-12-04T22:24:28.723Z,81.61
2018-12-04T22:29:41.046Z,81.25
2018-12-04T22:34:45.461Z,81.38
2018-12-04T22:39:50.197Z,81.51
2018-12-04T22:44:59.359Z,81.99
2018-12-04T22:50:03.973Z,82.17
2018-12-04T22:55:08.186Z,81.81
2018-12-04T23:00:22.087Z,82.42
2018-12-04T23:05:28.372Z,82.59
2018-12-04T23:10:38.404Z,83.19
2018-12-04T23:15:42.731Z,83.67
2018-12-04T23:20:47.023Z,83.22
2018-12-04T23:25:55.607Z,83.60
2018-12-04T23:30:59.945Z,84.05
2018-12-04T23:36:04.230Z,83.83
2018-12-04T23:41:08.534Z,84.34
2018-12-04T23:46:13.879Z,84.01
2018-12-04T23:51:18.271Z,84.57
2018-12-04T23:56:24.639Z,84.06
